Time;durP1;ratioP1;P1;durP2;ratioP2;P2;SDS_P1;SDS_P2;PMS_P1;PMS_P2;Temp;Humidity;BMP_temperature;BMP_pressure;BME280_temperature;BME280_humidity;BME280_pressure;Samples;Min_cycle;Max_cycle;Signal;HPM_P1;HPM_P2
2022/03/21 00:01:27;;;;;;;26.48;14.02;;;19.60;48.90;;;;;;5077605;28;20052;-69
2022/03/21 00:03:53;;;;;;;26.80;13.55;;;19.60;48.80;;;;;;5060508;28;20065;-69
2022/03/21 00:06:19;;;;;;;31.92;14.82;;;19.60;48.70;;;;;;5077534;28;20037;-69
2022/03/21 00:08:45;;;;;;;25.80;13.85;;;19.60;48.50;;;;;;5078004;28;20105;-69
2022/03/21 00:11:18;;;;;;;23.85;13.88;;;19.60;48.40;;;;;;5077633;28;20037;-69
2022/03/21 00:13:44;;;;;;;27.45;14.38;;;19.60;48.40;;;;;;5077934;28;20040;-69
2022/03/21 00:16:12;;;;;;;25.58;14.10;;;19.60;48.30;;;;;;5077715;28;20045;-69
2022/03/21 00:18:38;;;;;;;23.30;13.40;;;19.60;48.10;;;;;;5077643;28;20071;-70
2022/03/21 00:21:05;;;;;;;21.95;13.05;;;19.60;48.10;;;;;;5077162;28;20036;-69
2022/03/21 00:23:32;;;;;;;26.15;14.25;;;19.60;48.10;;;;;;5077363;28;20033;-69
2022/03/21 00:25:58;;;;;;;23.38;13.65;;;19.50;48.10;;;;;;5077432;28;20104;-69
2022/03/21 00:28:24;;;;;;;27.73;13.52;;;19.50;48.10;;;;;;5077410;28;20043;-68
2022/03/21 00:30:51;;;;;;;20.55;12.18;;;19.50;48.30;;;;;;5077350;28;20041;-69
2022/03/21 00:33:17;;;;;;;19.55;12.80;;;19.50;48.50;;;;;;5075084;28;20049;-69
2022/03/21 00:35:46;;;;;;;20.92;12.30;;;19.50;48.40;;;;;;5083589;28;20033;-69
2022/03/21 00:38:16;;;;;;;27.25;13.40;;;19.20;48.30;;;;;;5077095;28;20052;-69
2022/03/21 00:40:45;;;;;;;19.98;11.63;;;19.30;48.40;;;;;;5076951;28;20045;-69
2022/03/21 00:43:18;;;;;;;23.65;13.00;;;19.40;48.40;;;;;;5077159;28;20060;-68
2022/03/21 00:45:46;;;;;;;25.17;12.27;;;19.40;48.40;;;;;;5077460;28;20048;-69
2022/03/21 00:48:12;;;;;;;21.77;12.00;;;19.30;48.40;;;;;;5077121;28;20041;-69
2022/03/21 00:50:39;;;;;;;20.98;13.00;;;19.30;48.10;;;;;;5077132;28;20100;-69
2022/03/21 00:53:05;;;;;;;24.38;13.70;;;19.40;48.00;;;;;;5076932;28;20069;-69
2022/03/21 00:55:31;;;;;;;18.83;12.18;;;19.40;47.80;;;;;;5076750;28;20112;-69
2022/03/21 00:57:58;;;;;;;20.63;13.13;;;19.30;47.80;;;;;;5076878;28;20101;-69
2022/03/21 01:00:29;;;;;;;17.17;11.38;;;19.40;47.70;;;;;;5076682;28;20056;-69
2022/03/21 01:02:57;;;;;;;20.38;11.50;;;19.30;47.60;;;;;;5076912;28;20039;-69
2022/03/21 01:05:24;;;;;;;20.85;11.30;;;19.50;47.60;;;;;;5076945;28;20040;-69
2022/03/21 01:07:50;;;;;;;23.63;11.82;;;19.30;47.50;;;;;;5076677;28;20041;-70
2022/03/21 01:10:19;;;;;;;20.60;12.63;;;19.40;47.40;;;;;;5076780;28;20045;-69
2022/03/21 01:12:47;;;;;;;18.00;11.82;;;19.30;47.20;;;;;;5076759;28;20044;-69
2022/03/21 01:15:15;;;;;;;23.85;12.73;;;19.40;47.20;;;;;;5076689;28;20100;-68
2022/03/21 01:17:42;;;;;;;21.08;11.70;;;19.30;47.30;;;;;;5076769;28;20464;-68
2022/03/21 01:20:11;;;;;;;21.27;13.57;;;19.30;47.30;;;;;;5076597;28;20037;-69
2022/03/21 01:22:37;;;;;;;20.42;13.20;;;19.30;47.50;;;;;;5076559;28;20043;-68
2022/03/21 01:25:05;;;;;;;21.23;11.98;;;19.20;47.50;;;;;;5076750;28;20028;-69
2022/03/21 01:27:31;;;;;;;24.98;11.93;;;19.30;47.70;;;;;;5075880;28;20041;-69
2022/03/21 01:29:58;;;;;;;24.30;12.18;;;19.20;47.60;;;;;;5076319;28;20037;-69
2022/03/21 01:32:24;;;;;;;26.00;13.02;;;19.30;47.70;;;;;;5076394;28;20041;-69
2022/03/21 01:34:50;;;;;;;19.23;12.63;;;19.20;47.70;;;;;;5076600;28;20068;-68
2022/03/21 01:37:16;;;;;;;23.10;12.60;;;19.20;47.70;;;;;;5076322;28;20070;-69
2022/03/21 01:39:42;;;;;;;23.83;12.13;;;19.00;47.60;;;;;;5076106;28;20045;-69
2022/03/21 01:42:08;;;;;;;18.48;11.02;;;19.10;47.70;;;;;;5078187;28;20040;-68
2022/03/21 01:44:35;;;;;;;19.08;12.18;;;19.10;47.50;;;;;;5080550;28;20068;-69
2022/03/21 01:47:01;;;;;;;20.77;11.60;;;19.10;47.30;;;;;;5080426;28;20044;-69
2022/03/21 01:49:28;;;;;;;24.38;11.70;;;19.10;47.20;;;;;;5080607;28;20041;-69
2022/03/21 01:51:54;;;;;;;19.75;11.63;;;19.10;47.00;;;;;;5080319;28;20044;-69
2022/03/21 01:57:05;;;;;;;19.88;11.70;;;19.10;46.90;;;;;;5080273;28;20040;-69
2022/03/21 01:59:32;;;;;;;21.25;12.10;;;19.20;46.80;;;;;;5080296;28;20053;-68
2022/03/21 02:01:59;;;;;;;17.92;11.77;;;19.20;46.60;;;;;;5079853;28;20047;-70
2022/03/21 02:04:25;;;;;;;18.48;12.75;;;19.20;46.60;;;;;;5080158;28;20040;-69
2022/03/21 02:06:51;;;;;;;21.48;13.20;;;19.10;46.60;;;;;;5079589;28;20040;-70
2022/03/21 02:09:17;;;;;;;21.98;12.52;;;19.20;46.60;;;;;;5080106;28;20059;-69
2022/03/21 02:11:44;;;;;;;25.45;12.90;;;19.10;46.60;;;;;;5079317;28;20040;-69
2022/03/21 02:14:10;;;;;;;19.88;12.15;;;19.00;46.60;;;;;;5079947;28;20041;-69
2022/03/21 02:16:38;;;;;;;24.38;13.38;;;19.10;46.90;;;;;;5080178;28;20036;-69
2022/03/21 02:19:21;;;;;;;18.95;11.77;;;19.10;47.00;;;;;;5079858;28;20104;-69
2022/03/21 02:21:57;;;;;;;18.48;11.75;;;19.10;47.10;;;;;;5078975;28;20040;-69
2022/03/21 02:24:49;;;;;;;22.63;12.60;;;19.00;47.00;;;;;;5080029;28;20067;-69
2022/03/21 02:27:17;;;;;;;24.17;12.25;;;18.90;47.10;;;;;;5079805;28;20108;-69
2022/03/21 02:29:48;;;;;;;20.50;11.68;;;18.90;47.10;;;;;;5079830;28;20037;-68
2022/03/21 02:32:15;;;;;;;22.85;12.38;;;18.90;47.00;;;;;;5079672;28;20052;-69
2022/03/21 02:34:41;;;;;;;21.90;11.65;;;18.80;47.00;;;;;;5079378;28;20060;-69
2022/03/21 02:37:11;;;;;;;24.88;13.43;;;18.90;47.00;;;;;;5079812;28;20515;-69
2022/03/21 02:39:38;;;;;;;25.52;12.95;;;18.80;46.70;;;;;;5079420;28;20124;-69
2022/03/21 02:42:05;;;;;;;22.15;12.80;;;18.80;46.60;;;;;;5079346;28;20044;-69
2022/03/21 02:44:35;;;;;;;25.42;14.23;;;18.80;46.50;;;;;;5079458;28;20109;-68
2022/03/21 02:47:03;;;;;;;19.45;12.00;;;19.00;46.30;;;;;;5079426;28;20062;-69
2022/03/21 02:49:29;;;;;;;22.50;12.57;;;19.00;46.30;;;;;;5079490;28;20044;-69
2022/03/21 02:51:57;;;;;;;24.67;13.60;;;18.90;46.10;;;;;;5079253;28;20048;-68
2022/03/21 02:54:24;;;;;;;23.10;12.55;;;19.00;46.00;;;;;;5078733;28;20068;-69
2022/03/21 02:56:50;;;;;;;19.27;11.68;;;19.00;45.90;;;;;;5079359;28;20041;-69
2022/03/21 02:59:17;;;;;;;21.65;11.50;;;18.90;45.80;;;;;;5079060;28;20045;-69
2022/03/21 03:01:44;;;;;;;21.13;12.38;;;18.90;45.70;;;;;;5079097;28;20075;-69
2022/03/21 03:04:11;;;;;;;24.85;12.35;;;19.10;45.80;;;;;;5078867;28;20037;-69
2022/03/21 03:06:40;;;;;;;22.30;12.57;;;18.90;45.80;;;;;;5078528;28;20120;-69
2022/03/21 03:09:09;;;;;;;21.48;12.25;;;19.00;45.90;;;;;;5079021;28;20029;-68
2022/03/21 03:11:37;;;;;;;23.45;12.63;;;18.90;46.00;;;;;;5079003;28;20108;-68
2022/03/21 03:14:04;;;;;;;21.38;12.32;;;18.80;46.10;;;;;;5078804;28;20072;-68
2022/03/21 03:16:30;;;;;;;23.17;13.05;;;18.90;46.30;;;;;;5078812;28;20037;-69
2022/03/21 03:18:56;;;;;;;22.73;12.93;;;18.90;46.30;;;;;;5078956;28;20059;-69
2022/03/21 03:21:28;;;;;;;22.45;12.35;;;18.80;46.40;;;;;;5078605;28;20128;-68
2022/03/21 03:23:56;;;;;;;19.07;12.33;;;18.80;46.40;;;;;;5078946;28;20037;-69
2022/03/21 03:26:22;;;;;;;21.50;12.60;;;18.70;46.40;;;;;;5078991;28;20096;-69
2022/03/21 03:28:48;;;;;;;23.38;13.30;;;18.80;46.40;;;;;;5078629;28;20048;-70
2022/03/21 03:31:17;;;;;;;21.90;12.63;;;18.70;46.40;;;;;;5078643;28;20044;-69
2022/03/21 03:33:45;;;;;;;22.83;13.38;;;18.70;46.40;;;;;;5078611;28;20048;-69
2022/03/21 03:36:16;;;;;;;20.88;12.27;;;18.70;46.20;;;;;;5078444;28;20048;-69
2022/03/21 03:38:46;;;;;;;22.80;13.15;;;18.70;46.00;;;;;;5078660;28;20071;-68
2022/03/21 03:41:13;;;;;;;20.42;12.32;;;18.70;45.80;;;;;;5078503;28;20055;-69
2022/03/21 03:43:39;;;;;;;27.10;13.25;;;18.80;45.70;;;;;;5077448;28;20480;-68
2022/03/21 03:46:06;;;;;;;27.70;13.65;;;18.80;45.60;;;;;;5078419;28;20037;-69
2022/03/21 03:48:32;;;;;;;24.00;13.40;;;18.70;45.60;;;;;;5077933;28;20037;-69
2022/03/21 03:50:58;;;;;;;22.17;12.95;;;18.80;45.50;;;;;;5078571;28;20040;-69
2022/03/21 03:53:24;;;;;;;23.65;12.55;;;18.70;45.30;;;;;;5078258;28;20120;-69
2022/03/21 03:55:50;;;;;;;22.38;12.75;;;18.80;45.20;;;;;;5078248;28;20041;-70
2022/03/21 03:58:16;;;;;;;19.77;12.73;;;18.80;45.20;;;;;;5078192;28;20081;-69
2022/03/21 04:00:44;;;;;;;24.42;13.90;;;18.90;45.30;;;;;;5077829;28;20082;-69
2022/03/21 04:05:55;;;;;;;22.80;13.80;;;18.80;45.40;;;;;;5078203;28;20063;-69
2022/03/21 04:08:21;;;;;;;18.90;12.52;;;18.80;45.60;;;;;;5077929;28;20478;-69
2022/03/21 04:10:48;;;;;;;21.20;12.68;;;18.70;45.80;;;;;;5077058;28;20063;-69
2022/03/21 04:13:14;;;;;;;22.17;13.57;;;18.70;45.80;;;;;;5077845;28;20037;-69
2022/03/21 04:15:40;;;;;;;22.45;13.88;;;18.80;45.70;;;;;;5077762;28;20105;-69
2022/03/21 04:18:06;;;;;;;22.92;12.05;;;18.80;45.90;;;;;;5077728;28;20040;-69
2022/03/21 04:20:36;;;;;;;21.50;12.50;;;18.90;46.10;;;;;;5077680;28;20045;-68
2022/03/21 04:23:03;;;;;;;23.45;13.38;;;18.90;46.20;;;;;;5076935;28;20025;-68
2022/03/21 04:25:29;;;;;;;21.05;12.23;;;19.00;46.30;;;;;;5077366;28;20040;-69
2022/03/21 04:27:55;;;;;;;22.05;12.43;;;18.80;46.30;;;;;;5077611;28;20041;-68
2022/03/21 04:30:23;;;;;;;23.02;13.18;;;18.90;46.40;;;;;;5077493;28;20124;-69
2022/03/21 04:32:50;;;;;;;18.15;10.00;;;18.90;46.40;;;;;;5077386;28;20040;-70
2022/03/21 04:35:16;;;;;;;19.35;10.07;;;18.90;46.50;;;;;;5076517;28;20052;-69
2022/03/21 04:37:42;;;;;;;29.20;16.58;;;19.30;45.00;;;;;;5077438;28;20033;-69
2022/03/21 04:40:10;;;;;;;14.35;7.43;;;19.40;43.50;;;;;;5077009;28;20041;-69
2022/03/21 04:42:38;;;;;;;9.35;4.97;;;19.70;40.50;;;;;;5077233;28;20371;-68
2022/03/21 04:45:05;;;;;;;8.43;6.00;;;19.60;37.40;;;;;;5076981;28;20071;-70
2022/03/21 04:47:32;;;;;;;9.15;5.68;;;19.80;33.90;;;;;;5077209;28;20044;-68
2022/03/21 04:49:59;;;;;;;7.30;3.10;;;19.80;31.20;;;;;;5077086;28;20057;-69
2022/03/21 04:52:25;;;;;;;24.27;16.38;;;19.90;31.30;;;;;;5076943;28;20045;-68
2022/03/21 04:54:54;;;;;;;20.30;14.48;;;19.90;30.10;;;;;;5076673;28;20100;-67
2022/03/21 04:57:23;;;;;;;25.10;13.13;;;19.90;33.10;;;;;;5076345;28;20116;-68
2022/03/21 04:59:49;;;;;;;17.05;10.90;;;19.80;34.80;;;;;;5076366;28;20071;-67
2022/03/21 05:02:16;;;;;;;21.38;13.13;;;19.80;39.40;;;;;;5076324;28;20063;-67
2022/03/21 05:04:42;;;;;;;18.85;10.73;;;19.80;38.20;;;;;;5058376;28;20037;-67
2022/03/21 05:07:16;;;;;;;26.92;14.75;;;19.90;37.60;;;;;;5058890;28;20033;-68
2022/03/21 05:09:43;;;;;;;23.75;15.10;;;19.90;47.50;;;;;;5073885;28;20037;-68
2022/03/21 05:12:11;;;;;;;30.77;14.75;;;20.00;55.80;;;;;;5075910;28;20052;-66
2022/03/21 05:14:40;;;;;;;27.20;15.05;;;20.00;52.10;;;;;;5073125;28;20037;-67
2022/03/21 05:17:10;;;;;;;25.92;14.73;;;20.00;52.20;;;;;;5075057;28;20996;-67
2022/03/21 05:19:37;;;;;;;24.73;14.93;;;19.90;51.60;;;;;;5074406;28;20040;-68
2022/03/21 05:22:04;;;;;;;29.67;15.40;;;19.90;51.80;;;;;;5071774;28;20025;-68
2022/03/21 05:32:46;;;;;;;32.13;15.80;;;19.80;57.20;;;;;;5070547;28;20037;-70
2022/03/21 05:37:59;;;;;;;23.15;14.27;;;19.70;57.60;;;;;;5071816;28;20809;-68
2022/03/21 05:40:41;;;;;;;26.95;14.27;;;19.80;57.50;;;;;;5073557;28;20032;-67
2022/03/21 05:43:07;;;;;;;33.50;15.55;;;19.70;57.40;;;;;;5073454;28;20045;-68
2022/03/21 05:45:33;;;;;;;33.25;15.82;;;19.70;56.90;;;;;;5070079;28;20080;-67
2022/03/21 05:50:45;;;;;;;23.30;14.73;;;19.70;56.50;;;;;;5068417;28;20053;-68
2022/03/21 05:53:11;;;;;;;30.35;15.55;;;19.70;57.20;;;;;;5071615;28;20043;-67
2022/03/21 05:55:37;;;;;;;28.27;14.13;;;19.80;57.20;;;;;;5069163;28;20048;-68
2022/03/21 05:58:03;;;;;;;22.27;13.50;;;19.70;57.20;;;;;;5067108;28;20055;-67
2022/03/21 06:00:34;;;;;;;21.88;12.82;;;19.70;57.30;;;;;;5067597;28;20045;-68
2022/03/21 06:03:00;;;;;;;24.65;13.10;;;19.70;57.60;;;;;;5065191;28;20033;-67
2022/03/21 06:05:27;;;;;;;21.92;12.00;;;19.80;57.30;;;;;;5077329;28;20120;-68
2022/03/21 06:07:54;;;;;;;21.55;12.48;;;19.80;57.00;;;;;;5075097;28;20044;-70
2022/03/21 06:10:21;;;;;;;19.90;12.27;;;19.70;56.40;;;;;;5072438;28;20044;-69
2022/03/21 06:12:49;;;;;;;23.70;12.95;;;19.60;56.40;;;;;;5075476;28;20029;-68
2022/03/21 06:15:16;;;;;;;21.98;11.95;;;19.90;57.20;;;;;;5074283;28;20109;-69
2022/03/21 06:17:43;;;;;;;12.48;7.38;;;19.90;59.10;;;;;;5089151;28;20037;-70
2022/03/21 06:20:12;;;;;;;18.50;10.82;;;20.00;59.40;;;;;;5065007;28;20037;-71
2022/03/21 06:22:39;;;;;;;15.18;8.13;;;20.10;57.60;;;;;;5054966;28;20061;-72
2022/03/21 06:25:07;;;;;;;14.90;6.55;;;20.30;56.80;;;;;;5054971;28;20047;-72
2022/03/21 06:27:35;;;;;;;16.75;7.00;;;20.40;55.80;;;;;;5066271;28;20069;-73
2022/03/21 06:30:02;;;;;;;16.35;9.10;;;20.60;55.20;;;;;;5079027;28;20100;-72
2022/03/21 06:32:29;;;;;;;21.05;9.45;;;20.80;54.40;;;;;;5078016;28;20041;-71
2022/03/21 06:34:55;;;;;;;17.20;9.93;;;20.80;53.60;;;;;;5066887;28;20108;-68
2022/03/21 06:37:21;;;;;;;20.30;8.70;;;21.00;52.50;;;;;;5076716;28;20124;-70
2022/03/21 06:39:48;;;;;;;17.20;10.13;;;21.00;50.60;;;;;;5072476;28;20041;-68
2022/03/21 06:42:14;;;;;;;17.17;9.88;;;21.10;49.50;;;;;;5076009;28;20029;-68
2022/03/21 06:44:44;;;;;;;19.45;9.32;;;21.10;48.60;;;;;;5074264;28;20036;-68
2022/03/21 06:47:10;;;;;;;20.67;10.48;;;21.20;47.80;;;;;;5076023;28;20057;-66
2022/03/21 06:49:37;;;;;;;19.00;10.18;;;21.20;47.00;;;;;;5076264;28;20047;-68
2022/03/21 06:52:05;;;;;;;13.88;8.73;;;21.30;46.50;;;;;;5073528;28;20041;-68
2022/03/21 06:54:31;;;;;;;12.10;7.95;;;21.20;45.90;;;;;;5072252;28;20100;-70
2022/03/21 06:56:57;;;;;;;18.08;9.80;;;21.40;45.50;;;;;;5074633;28;20071;-68
2022/03/21 06:59:24;;;;;;;19.50;10.65;;;21.30;45.00;;;;;;5076247;28;20044;-69
2022/03/21 07:01:51;;;;;;;15.68;9.63;;;21.40;44.60;;;;;;5076149;28;20149;-69
2022/03/21 07:04:17;;;;;;;16.42;7.40;;;21.30;44.30;;;;;;5079839;28;20048;-68
2022/03/21 07:06:43;;;;;;;19.80;10.57;;;21.50;44.00;;;;;;5074390;28;20039;-69
2022/03/21 07:09:09;;;;;;;20.63;12.80;;;21.60;43.70;;;;;;5073996;28;20060;-67
2022/03/21 07:11:37;;;;;;;12.60;8.02;;;21.40;43.10;;;;;;5072177;28;20041;-68
2022/03/21 07:14:04;;;;;;;18.45;10.15;;;21.50;43.00;;;;;;5075926;28;20064;-68
2022/03/21 07:16:30;;;;;;;19.00;10.45;;;21.50;42.70;;;;;;5076194;28;20044;-69
2022/03/21 07:18:56;;;;;;;14.85;8.63;;;21.50;42.50;;;;;;5076378;28;20042;-71
2022/03/21 07:21:22;;;;;;;15.35;8.57;;;21.60;42.30;;;;;;5073934;28;20041;-70
2022/03/21 07:23:48;;;;;;;20.17;10.60;;;21.60;42.00;;;;;;5074284;28;20036;-68
2022/03/21 07:26:15;;;;;;;16.58;9.15;;;21.70;41.80;;;;;;5056017;28;20053;-69
2022/03/21 07:28:41;;;;;;;15.13;8.38;;;21.60;41.50;;;;;;5055623;28;20041;-69
2022/03/21 07:31:09;;;;;;;13.70;10.32;;;21.60;41.30;;;;;;5086916;28;20041;-70
2022/03/21 07:33:37;;;;;;;18.27;11.57;;;21.50;36.70;;;;;;5075452;28;20059;-71
2022/03/21 07:36:03;;;;;;;17.08;10.93;;;21.40;40.80;;;;;;5076061;28;20056;-70
2022/03/21 07:38:30;;;;;;;19.13;11.50;;;21.30;37.70;;;;;;5074009;28;20045;-69
2022/03/21 07:40:57;;;;;;;16.33;8.93;;;21.20;38.30;;;;;;5055550;28;20133;-69
2022/03/21 07:43:24;;;;;;;22.52;10.88;;;21.10;41.10;;;;;;5055698;28;20573;-68
2022/03/21 07:48:34;;;;;;;17.33;9.63;;;21.20;38.60;;;;;;5057366;28;20033;-70
2022/03/21 07:51:02;;;;;;;15.85;8.77;;;21.10;40.40;;;;;;5057519;28;20159;-68
2022/03/21 07:53:28;;;;;;;16.15;9.93;;;21.20;41.00;;;;;;5057654;28;20037;-68
2022/03/21 07:55:54;;;;;;;15.07;10.60;;;21.10;40.70;;;;;;5060386;28;20052;-68
2022/03/21 07:58:22;;;;;;;14.98;9.27;;;21.00;39.50;;;;;;5057131;28;20041;-69
2022/03/21 08:00:50;;;;;;;16.52;10.20;;;21.10;39.90;;;;;;5071112;28;20049;-68
2022/03/21 08:03:16;;;;;;;9.68;5.63;;;21.10;39.60;;;;;;5076651;28;20037;-69
2022/03/21 08:05:42;;;;;;;16.60;9.95;;;21.20;40.30;;;;;;5068652;28;20068;-69
2022/03/21 08:08:09;;;;;;;18.60;10.60;;;21.20;40.30;;;;;;5060509;28;20037;-69
2022/03/21 08:10:36;;;;;;;17.90;9.88;;;21.30;40.60;;;;;;5068088;28;20043;-69
2022/03/21 08:13:02;;;;;;;15.95;10.07;;;21.20;39.30;;;;;;5071221;28;20050;-69
2022/03/21 08:15:28;;;;;;;19.38;10.27;;;21.10;36.90;;;;;;5056982;28;20098;-68
2022/03/21 08:17:59;;;;;;;9.95;5.22;;;21.00;41.50;;;;;;5066253;28;20176;-69
2022/03/21 08:20:33;;;;;;;5.88;4.40;;;21.20;41.30;;;;;;5076443;28;20049;-68
2022/03/21 08:23:01;;;;;;;12.10;7.28;;;21.20;40.80;;;;;;5065416;28;20050;-68
2022/03/21 08:25:27;;;;;;;13.88;7.70;;;21.20;40.50;;;;;;5064394;28;20049;-68
2022/03/21 08:27:54;;;;;;;17.88;10.00;;;21.30;39.40;;;;;;5076590;28;20036;-68
2022/03/21 08:30:21;;;;;;;17.83;10.43;;;21.20;40.10;;;;;;5076343;28;20041;-68
2022/03/21 08:32:47;;;;;;;19.33;10.70;;;21.10;36.10;;;;;;5074878;28;20041;-68
2022/03/21 08:35:15;;;;;;;16.08;9.57;;;21.10;39.00;;;;;;5076344;28;20041;-68
2022/03/21 08:37:41;;;;;;;15.80;9.00;;;21.00;41.70;;;;;;5087410;28;20048;-68
2022/03/21 08:40:10;;;;;;;19.17;9.05;;;21.10;42.10;;;;;;5072395;28;20040;-68
2022/03/21 08:42:37;;;;;;;19.80;10.10;;;21.10;42.20;;;;;;5056374;28;20129;-68
2022/03/21 08:45:05;;;;;;;16.63;10.20;;;21.00;42.20;;;;;;5061576;28;20037;-68
2022/03/21 08:47:32;;;;;;;20.67;11.25;;;21.00;42.30;;;;;;5076587;28;20041;-68
2022/03/21 08:49:58;;;;;;;17.92;10.95;;;21.00;42.90;;;;;;5066481;28;20032;-68
2022/03/21 08:52:24;;;;;;;14.13;8.77;;;21.00;42.50;;;;;;5056296;28;20041;-68
2022/03/21 08:54:51;;;;;;;20.30;11.30;;;21.00;43.30;;;;;;5055534;28;20048;-68
2022/03/21 08:57:17;;;;;;;18.38;10.70;;;21.10;42.40;;;;;;5061107;28;20056;-68
2022/03/21 08:59:45;;;;;;;17.40;10.35;;;21.00;43.30;;;;;;5055833;28;20057;-68
2022/03/21 09:02:13;;;;;;;26.27;11.20;;;21.00;43.40;;;;;;5055493;28;20490;-68
2022/03/21 09:04:39;;;;;;;20.88;11.13;;;21.10;43.60;;;;;;5055910;28;20105;-68
2022/03/21 09:07:08;;;;;;;16.30;9.30;;;21.10;43.60;;;;;;5059438;28;20041;-68
2022/03/21 09:09:35;;;;;;;16.70;8.60;;;21.20;44.10;;;;;;5075868;28;20037;-68
2022/03/21 09:12:01;;;;;;;16.05;9.80;;;21.30;44.20;;;;;;5061944;28;20101;-68
2022/03/21 09:14:27;;;;;;;16.25;10.23;;;21.20;42.20;;;;;;5056174;28;20033;-68
2022/03/21 09:16:56;;;;;;;18.17;10.40;;;21.10;44.00;;;;;;5056280;28;20074;-68
2022/03/21 09:19:23;;;;;;;21.52;11.50;;;21.10;43.00;;;;;;5055965;28;20038;-68
2022/03/21 09:21:51;;;;;;;25.08;11.63;;;21.10;43.40;;;;;;5055843;28;20113;-68
2022/03/21 09:24:18;;;;;;;18.38;11.45;;;21.00;44.20;;;;;;5055955;28;20042;-68
2022/03/21 09:26:44;;;;;;;18.25;10.50;;;21.00;44.60;;;;;;5058683;28;20040;-68
2022/03/21 09:29:10;;;;;;;19.48;10.57;;;21.00;44.30;;;;;;5055824;28;20033;-68
2022/03/21 09:31:39;;;;;;;18.30;10.77;;;21.00;44.80;;;;;;5064825;28;20047;-68
2022/03/21 09:34:05;;;;;;;20.27;11.57;;;21.00;43.80;;;;;;5066515;28;20048;-68
2022/03/21 09:36:31;;;;;;;15.15;10.25;;;21.00;41.30;;;;;;5059515;28;20104;-68
2022/03/21 09:38:57;;;;;;;17.20;8.68;;;21.00;44.50;;;;;;5055666;28;20041;-68
2022/03/21 09:41:26;;;;;;;18.77;10.77;;;20.90;45.00;;;;;;5057991;28;20062;-68
2022/03/21 09:43:57;;;;;;;18.08;9.35;;;21.10;43.20;;;;;;5060830;28;20033;-68
2022/03/21 09:46:24;;;;;;;15.98;8.50;;;21.00;44.90;;;;;;5053632;28;20042;-68
2022/03/21 09:48:52;;;;;;;14.43;8.38;;;21.00;43.70;;;;;;5055426;28;20037;-68
2022/03/21 09:51:22;;;;;;;14.60;10.07;;;21.10;45.20;;;;;;5074302;28;20051;-68
2022/03/21 09:53:49;;;;;;;16.67;9.98;;;21.10;43.90;;;;;;5075498;28;20040;-68
2022/03/21 09:56:16;;;;;;;9.35;5.15;;;21.10;44.80;;;;;;5071263;28;20108;-68
2022/03/21 09:58:43;;;;;;;8.57;4.65;;;21.20;45.60;;;;;;5075645;28;20051;-68
2022/03/21 10:01:12;;;;;;;10.55;6.10;;;21.20;43.40;;;;;;5075149;28;20072;-68
2022/03/21 10:03:39;;;;;;;8.60;5.82;;;21.10;43.10;;;;;;5079057;28;20110;-68
2022/03/21 10:06:34;;;;;;;10.90;6.65;;;21.20;45.40;;;;;;5078186;28;20048;-69
2022/03/21 10:09:10;;;;;;;9.70;5.85;;;21.20;45.80;;;;;;5059274;28;20042;-68
2022/03/21 10:11:39;;;;;;;9.60;4.03;;;21.00;42.30;;;;;;5062735;28;20076;-68
2022/03/21 10:14:23;;;;;;;5.15;3.22;;;21.10;43.70;;;;;;5059347;28;20038;-68
2022/03/21 10:17:00;;;;;;;8.52;4.53;;;21.10;45.40;;;;;;5059530;28;20054;-68
2022/03/21 10:19:39;;;;;;;7.40;4.60;;;21.00;45.50;;;;;;5059244;28;20033;-68
2022/03/21 10:22:08;;;;;;;8.48;5.15;;;21.10;45.60;;;;;;5058464;28;20068;-68
2022/03/21 10:24:39;;;;;;;8.95;5.10;;;21.10;44.90;;;;;;5059224;28;20038;-68
2022/03/21 10:27:06;;;;;;;9.20;4.97;;;21.20;44.70;;;;;;5062720;28;20072;-68
2022/03/21 10:29:48;;;;;;;9.68;5.93;;;21.20;44.60;;;;;;5058711;28;20038;-68
2022/03/21 10:32:39;;;;;;;10.38;5.10;;;21.00;43.80;;;;;;5058968;28;20061;-69
2022/03/21 10:35:07;;;;;;;7.40;4.30;;;21.10;46.40;;;;;;5059142;28;20034;-69
2022/03/21 10:38:00;;;;;;;9.98;6.05;;;21.10;46.50;;;;;;5072756;28;20108;-68
2022/03/21 10:40:30;;;;;;;5.80;2.88;;;21.10;46.70;;;;;;5078715;28;20029;-68
2022/03/21 10:42:56;;;;;;;11.32;6.80;;;21.20;46.80;;;;;;5072256;28;20048;-68
2022/03/21 10:45:41;;;;;;;10.40;6.32;;;21.20;46.70;;;;;;5078742;28;20108;-68
2022/03/21 10:48:10;;;;;;;6.40;3.78;;;21.30;46.50;;;;;;5077131;28;20041;-69
2022/03/21 10:50:42;;;;;;;5.45;2.65;;;21.20;46.70;;;;;;5077968;28;20040;-69
2022/03/21 10:53:39;;;;;;;0.75;0.60;;;21.30;44.30;;;;;;5078275;28;20045;-67
2022/03/21 10:56:10;;;;;;;0.60;0.60;;;21.30;48.30;;;;;;5085509;28;20037;-68
2022/03/21 10:58:37;;;;;;;8.40;5.30;;;21.40;48.10;;;;;;5059777;28;20075;-68
2022/03/21 11:01:31;;;;;;;2.45;1.92;;;21.40;43.50;;;;;;5058057;28;20045;-67
2022/03/21 11:04:00;;;;;;;0.57;0.57;;;21.60;48.30;;;;;;5057643;28;20048;-68
2022/03/21 11:06:29;;;;;;;3.08;2.28;;;21.70;46.80;;;;;;5067359;28;20060;-68
2022/03/21 11:08:57;;;;;;;4.38;2.58;;;21.80;46.90;;;;;;5067760;28;20065;-68
2022/03/21 11:11:24;;;;;;;5.28;4.45;;;21.90;46.00;;;;;;5074366;28;20045;-69
2022/03/21 11:13:53;;;;;;;5.97;5.07;;;21.90;39.00;;;;;;5058692;28;20048;-68
2022/03/21 11:16:20;;;;;;;9.32;6.50;;;21.80;34.70;;;;;;5058253;28;20037;-69
2022/03/21 11:18:48;;;;;;;14.55;6.72;;;21.70;34.60;;;;;;5057999;28;20045;-69
2022/03/21 11:21:14;;;;;;;3.55;3.15;;;21.80;32.80;;;;;;5057049;28;20101;-70
2022/03/21 11:23:40;;;;;;;5.25;3.83;;;21.70;32.40;;;;;;5056847;28;20129;-69
2022/03/21 11:26:42;;;;;;;5.53;3.83;;;21.70;31.70;;;;;;5058563;28;20037;-69
2022/03/21 11:29:29;;;;;;;5.13;3.83;;;21.60;32.00;;;;;;5036376;28;20038;-69
2022/03/21 11:32:06;;;;;;;6.70;4.13;;;21.60;30.90;;;;;;5066991;28;20044;-68
2022/03/21 11:34:54;;;;;;;4.88;3.45;;;21.50;32.20;;;;;;5077551;28;20071;-69
2022/03/21 11:37:32;;;;;;;5.53;3.85;;;21.50;31.60;;;;;;5077727;28;20112;-69
2022/03/21 11:40:24;;;;;;;5.28;3.22;;;21.50;30.40;;;;;;5077431;28;20037;-69
2022/03/21 11:42:51;;;;;;;4.82;3.25;;;21.50;45.50;;;;;;5068868;28;20072;-69
2022/03/21 11:45:31;;;;;;;6.35;4.00;;;21.60;47.00;;;;;;5057493;28;20046;-68
2022/03/21 11:48:22;;;;;;;8.23;4.30;;;21.80;43.30;;;;;;5057560;28;20045;-68
2022/03/21 11:50:55;;;;;;;5.72;3.80;;;21.70;47.00;;;;;;5057477;28;20038;-68
2022/03/21 11:53:31;;;;;;;10.98;4.20;;;21.80;47.40;;;;;;5059982;28;20047;-69
2022/03/21 11:55:57;;;;;;;8.88;3.53;;;21.80;47.40;;;;;;5076807;28;20051;-69
2022/03/21 11:58:23;;;;;;;7.05;3.58;;;21.80;47.20;;;;;;5061047;28;20045;-69
2022/03/21 12:01:11;;;;;;;5.40;3.13;;;21.90;46.50;;;;;;5056904;28;20049;-69
2022/03/21 12:03:38;;;;;;;12.55;4.68;;;21.80;48.00;;;;;;5057378;28;20100;-69
2022/03/21 12:06:20;;;;;;;6.93;4.53;;;21.80;47.20;;;;;;5058198;28;20053;-69
2022/03/21 12:08:48;;;;;;;4.82;3.60;;;21.70;43.90;;;;;;5057084;28;20047;-69
2022/03/21 12:11:40;;;;;;;8.05;3.63;;;21.80;48.40;;;;;;5056604;28;20630;-68
2022/03/21 12:14:25;;;;;;;8.23;3.85;;;21.80;48.70;;;;;;5058260;28;20049;-68
2022/03/21 12:17:00;;;;;;;5.97;3.45;;;21.80;48.50;;;;;;5057105;28;20045;-68
2022/03/21 12:19:57;;;;;;;5.40;3.60;;;21.70;48.10;;;;;;5073002;28;20037;-68
2022/03/21 12:22:29;;;;;;;5.90;3.45;;;21.70;47.10;;;;;;5059742;28;20060;-69
2022/03/21 12:24:59;;;;;;;2.25;1.65;;;21.70;45.10;;;;;;5076504;28;20052;-69
2022/03/21 12:27:34;;;;;;;4.18;2.55;;;21.80;48.80;;;;;;5070383;28;20111;-69
2022/03/21 12:30:20;;;;;;;5.25;3.28;;;21.90;50.70;;;;;;5055667;28;20041;-68
2022/03/21 12:33:00;;;;;;;5.88;2.65;;;21.90;37.90;;;;;;5062674;28;20064;-69
2022/03/21 12:35:32;;;;;;;7.28;3.30;;;21.90;39.70;;;;;;5074929;28;20049;-69
2022/03/21 12:38:03;;;;;;;4.50;3.37;;;21.90;36.70;;;;;;5076267;28;20045;-69
2022/03/21 12:40:30;;;;;;;6.32;4.22;;;21.90;32.10;;;;;;5076076;28;20037;-69
2022/03/21 12:42:57;;;;;;;7.53;3.80;;;22.00;47.90;;;;;;5074313;28;20071;-69
2022/03/21 12:45:24;;;;;;;7.15;4.03;;;22.30;55.00;;;;;;5071025;28;20045;-69
2022/03/21 12:47:51;;;;;;;5.72;3.10;;;22.60;60.70;;;;;;5083978;28;20025;-67
2022/03/21 12:50:21;;;;;;;4.72;3.88;;;22.70;58.50;;;;;;5076015;28;20070;-67
2022/03/21 12:52:56;;;;;;;5.50;4.10;;;22.80;62.10;;;;;;5078892;28;20071;-68
2022/03/21 12:55:23;;;;;;;9.80;4.70;;;22.80;55.80;;;;;;5070462;28;20033;-69
2022/03/21 12:58:03;;;;;;;6.20;3.47;;;22.80;51.70;;;;;;5067139;28;20075;-69
2022/03/21 13:00:36;;;;;;;8.48;4.55;;;22.50;50.90;;;;;;5057368;28;20057;-69
2022/03/21 13:03:06;;;;;;;6.88;4.60;;;22.60;46.90;;;;;;5076328;28;20064;-68
2022/03/21 13:11:35;;;;;;;3.78;2.63;;;22.40;48.60;;;;;;5068650;28;20037;-68